Airfield :
LOGIN :

Register | Disclaimer

   EN    FR    IT 

 










Legend :    VFR   Marginal VFR   IFR   Intensive IFR   Very Intensive IFR
Visi :
Ceiling :
>= 8 km
>= 3000ft
5 to 8 km
1000 to 3000 ft
1500m to 5 km
500 to 1000 ft
800 to 1500m
200 to 500 ft
< 800m
< 200 ft
Symbols :   Thunderstorms  Fog  Heavy snow  Heavy precipitations  Wind > 20 kt
SIGMETs :     Misc.  Thunderstorms  Icing  Turbulence  Mountain Waves  Volcanic Ashes







- Airport Elevation : 270 ft
- IATA code : OXF
- Download approach charts


EGTK - Oxford (Kidlington)

CURRENT METAR :
  • 231350Z 06016KT 9999 SCT033 BKN043 11/04 Q1016

EXPIRED METARs :
  • 231320Z 06017KT 9999 SCT032 BKN042 10/04 Q1016
  • 231250Z 07016KT 9999 FEW031 SCT040 BKN048 10/05 Q1016
  • 231220Z 07017KT 9999 FEW035 BKN045 10/05 Q1016
  • 231150Z 07016KT 030V100 9999 SCT034 BKN041 10/05 Q1015
  • 231120Z 07015KT 040V100 9999 SCT028 SCT032 BKN037 10/04 Q1015

TAF TAF EGTK
Valid from the 23 at 12:00 until the 23 at 21:00 UTC


231056Z 2312/2321 05012KT 9999 SCT025
PROB30
TEMPO 2312/2321 06015G25KT
No reported NOTAMs for that airfield.
2 SIGMETs reported for the London FIR (EGTT) :
 
Severe turbulence
EGTT SIGMET 03 VALID 231215/231615 EGRR
EGTT LONDON FIR SEV TURB FCST S OF LINE N4931 W00800 - N5040 E00127 SFC/FL060 MOV N 05KT INTSF=
Severe turbulence
EGTT SIGMET 02 VALID 231215/231615 EGRR
EGTT LONDON FIR SEV TURB FCST NW OF LINE N5500 E00133 - N5237 W00530 FL240/330 MOV SE 05KT NC=



MET'MAP, your aeronautical weather chart ! - Copyright ORBIFLY December 2007 - Disclaimer

ORBIFLY MET'MAP TEAM :

Programming & Development : Alexandra Zaïnal
Concept & Development : Baudouin d'Aumeries
Co-Development & Prog : Marc-Olivier Méhu
Technical & hardware support : Manuel Goepfert

Contact : metmap@orbifly.com




SOURCES & CREDITS :

   NOAA